This is the latest recevied weather packets stored in our database for station/object VK5ARG-5. If no packets are shown the sender has not sent any weather packets the latest 10 day(s).
| Time | Temp. | Humidity | Pressure | Rain* | Wind** | Luminosity | Snow |
|---|---|---|---|---|---|---|---|
| 1777464921 | 19.44° C | 40% | - | 0 mm | - | - | - |
| 1777463723 | 20° C | 40% | - | 0 mm | - | - | - |
| 1777460721 | 21.11° C | 38% | - | 0 mm | - | - | - |
| 1777457729 | 21.11° C | 35% | - | 0 mm | - | - | - |
| 1777455926 | 22.22° C | 31% | - | 0 mm | - | - | - |
| 1777449329 | 22.78° C | 29% | - | 0 mm | - | - | - |
| 1777448141 | 22.78° C | 29% | - | 0 mm | - | - | - |
| 1777447526 | 23.33° C | 28% | - | 0 mm | - | - | - |
| 1777436124 | 25.56° C | 28% | - | 0 mm | - | - | - |
| 1777433727 | 25° C | 29% | - | 0 mm | - | - | - |
| 1777430726 | 24.44° C | 29% | - | 0 mm | - | - | - |
| 1777430122 | 24.44° C | 30% | - | 0 mm | - | - | - |
| 1777427725 | 24.44° C | 30% | - | 0 mm | - | - | - |
| 1777425327 | 23.89° C | 30% | - | 0 mm | - | - | - |
| 1777420524 | 21.67° C | 39% | - | 0 mm | - | - | - |
| 1777419927 | 21.11° C | 41% | - | 0 mm | - | - | - |
| 1777415729 | 17.78° C | 50% | - | 0 mm | - | - | - |
| 1777413926 | 17.22° C | 50% | - | 0 mm | - | - | - |
| 1777411529 | 16.11° C | 53% | - | 0 mm | - | - | - |
| 1777410925 | 16.67° C | 53% | - | 0 mm | - | - | - |
| 1777410322 | 16.67° C | 52% | - | 0 mm | - | - | - |
| 1777408527 | 16.67° C | 52% | - | 0 mm | - | - | - |
| 1777402525 | 17.78° C | 45% | - | 0 mm | - | - | - |
| 1777398324 | 18.89° C | 42% | - | 0 mm | - | - | - |
| 1777395324 | 17.22° C | 47% | - | 0 mm | - | - | - |
* Rain latest hour (hover to see other rain measurements)
** Current wind speed in m/s (hover to see current wind gust speed)